Terminal Aerodrome Forecast
Issued by NWS

Home | Current Version | Previous Version | Text Only | Print | Product List | Glossary On
Versions: 1 2 3 4 5 6 7 8 9 10 11 12 13 14 15
000
FTUS46 KMFR 172300
TAFRBG
TAF
KRBG 172330Z 1800/1824 18008KT P6SM -RA SCT020 OVC040
     FM180200 VRB03KT P6SM -SHRA SCT020 OVC040
     FM180600 00000KT P6SM OVC020
     FM181600 VRB03KT P6SM SCT020
     FM181800 VRB03KT P6SM SKC=

USA.gov is the U.S. government's official web portal to all federal, state and local government web resources and services.